Saturday, July 21, 2018, 12:21 AM GMT
Back to Local

CYCX, Gagetown Can-Mil

Location: , , Canada Lat: 45.833
Local Time: 12:21 AM GMT ( 0:21 GMT) Lon: -66.433
Time Zone: GMT Elev: 167 ft

Show me the last for .
Show Decoded

2018-07-21 00:00 METAR CYCX 210000Z 19005KT 15SM FEW090 23/13 A3016 RMK AC1 DA1074FT SLP214 =
2018-07-20 23:00 METAR CYCX 202300Z 19006KT 15SM SKC 26/13 A3015 RMK DA1389FT SLP211 =
2018-07-20 22:00 METAR CYCX 202200Z 18008KT 160V220 15SM SKC 27/14 A3014 RMK DA1588FT SLP207 =
2018-07-20 21:00 METAR CYCX 202100Z 13008KT 15SM SKC 28/14 A3013 RMK DA1709FT SLP205 =
2018-07-20 20:00 METAR CYCX 202000Z 21005KT 120V230 15SM FEW040 30/14 A3013 RMK CU1 DA1836FT
                 SLP204 =
2018-07-20 19:00 METAR CYCX 201900Z 18005KT 160V240 15SM SKC 29/15 A3014 RMK SLP207 =
2018-07-20 18:00 METAR CYCX 201800Z 25005KT 180V270 15SM SKC 28/14 A3015 RMK DA1691FT SLP209 =
2018-07-20 17:00 METAR CYCX 201700Z 00000KT 15SM SKC 28/14 A3016 RMK DA1630FT SLP212 =
2018-07-20 16:00 METAR CYCX 201600Z 24005KT 15SM SKC 27/15 A3017 RMK DA1476FT SLP217 =
2018-07-20 15:00 METAR CYCX 201500Z 24006KT 210V310 15SM FEW240 26/14 A3017 RMK CI1 DA1376FT
                 SLP219 =
2018-07-20 14:00 METAR CYCX 201400Z 26003KT 15SM FEW240 25/14 A3017 RMK CI1 DA1239FT SLP219 =
2018-07-20 13:00 METAR CYCX 201300Z 24003KT 180V300 15SM FEW240 22/14 A3017 RMK CI1 DA977FT
                 SLP217 =
2018-07-20 12:00 METAR CYCX 201200Z 23002KT 15SM FEW240 19/13 A3016 RMK CI1 DA565FT SLP214 =
2018-07-20 11:00 METAR CYCX 201100Z 22005KT 15SM FEW240 17/13 A3015 RMK CI1 DA356FT SLP210 =
2018-07-20 10:00 METAR CYCX 201000Z 22003KT 160V270 15SM FEW240 14/12 A3013 RMK CI1 DA70FT SLP205
                 =
2018-07-20 09:00 METAR CYCX 200900Z 22003KT 15SM FEW090 12/10 A3012 RMK AC1 DA-194FT SLP201 =
2018-07-20 08:00 METAR CYCX 200800Z 21003KT 170V230 15SM SKC 13/10 A3010 RMK DA-111FT SLP195 =
2018-07-20 07:00 METAR CYCX 200700Z 24004KT 15SM SKC 12/10 A3010 RMK DA-170FT SLP193 =
2018-07-20 06:00 METAR CYCX 200600Z 22003KT 15SM SKC 15/11 A3009 RMK DA142FT SLP190 =
2018-07-20 05:00 METAR CYCX 200500Z 21005KT 15SM SKC 15/11 A3008 RMK DA205FT SLP187 =
2018-07-20 04:00 METAR CYCX 200400Z 21007KT 15SM SKC 16/11 A3007 RMK DA358FT SLP184 =
2018-07-20 03:00 METAR CYCX 200300Z 20007KT 15SM SKC 17/11 A3006 RMK DA425FT SLP180 =
2018-07-20 02:00 METAR CYCX 200200Z 19005KT 15SM SKC 13/11 A3006 RMK DA30FT SLP179 =
2018-07-20 01:00 METAR CYCX 200100Z 17005KT 15SM FEW060 FEW240 15/12 A3004 RMK SC1CI1 DA279FT
                 SLP173 =

Support USWX by starting your Amazon purchase here.